createdAt,value
2023-02-09T00:01:47.599Z,17.77
2023-02-09T00:04:15.516Z,18.92
2023-02-09T00:06:43.433Z,20.75
2023-02-09T00:09:11.262Z,20.88
2023-02-09T00:11:57.695Z,19.27
2023-02-09T00:14:26.632Z,17.38
2023-02-09T00:16:54.553Z,16.52
2023-02-09T00:19:22.289Z,20.50
2023-02-09T00:21:50.093Z,19.48
2023-02-09T00:24:18.204Z,21.00
2023-02-09T00:26:46.397Z,23.58
2023-02-09T00:29:14.727Z,20.25
2023-02-09T00:31:43.210Z,19.85
2023-02-09T00:34:13.962Z,19.15
2023-02-09T00:36:42.153Z,20.15
2023-02-09T00:39:09.915Z,20.85
2023-02-09T00:41:56.488Z,19.58
2023-02-09T00:44:24.366Z,21.60
2023-02-09T00:46:52.292Z,22.60
2023-02-09T00:49:20.849Z,26.67
2023-02-09T00:51:48.742Z,26.50
2023-02-09T00:54:17.083Z,25.02
2023-02-09T00:56:46.601Z,24.73
2023-02-09T00:59:14.587Z,28.23
2023-02-09T01:01:43.035Z,23.77
2023-02-09T01:04:10.771Z,21.27
2023-02-09T01:06:38.478Z,20.10
2023-02-09T01:09:06.381Z,19.50
2023-02-09T01:11:34.085Z,18.98
2023-02-09T01:14:04.314Z,19.00
2023-02-09T01:16:33.085Z,20.08
2023-02-09T01:19:02.969Z,21.20
2023-02-09T01:21:31.446Z,19.80
2023-02-09T01:23:59.491Z,18.15
2023-02-09T01:26:27.430Z,21.95
2023-02-09T01:28:55.391Z,19.33
2023-02-09T01:31:30.781Z,19.48
2023-02-09T01:34:02.186Z,19.90
2023-02-09T01:39:01.839Z,17.27
2023-02-09T01:41:30.980Z,20.35
2023-02-09T01:44:28.111Z,19.85
2023-02-09T01:46:55.885Z,17.92
2023-02-09T01:49:28.265Z,18.73
2023-02-09T01:52:07.630Z,19.95
2023-02-09T01:54:58.233Z,19.80
2023-02-09T01:57:31.672Z,21.63
2023-02-09T02:00:13.571Z,17.95
2023-02-09T02:02:54.482Z,17.83
2023-02-09T02:05:23.950Z,20.35
2023-02-09T02:08:13.315Z,20.77
2023-02-09T02:10:41.309Z,18.90
2023-02-09T02:13:09.128Z,18.40
2023-02-09T02:15:51.629Z,19.85
2023-02-09T02:19:03.605Z,19.13
2023-02-09T02:21:46.160Z,17.30
2023-02-09T02:24:44.381Z,19.10
2023-02-09T02:27:31.409Z,19.77
2023-02-09T02:30:25.426Z,20.00
2023-02-09T02:33:20.340Z,19.88
2023-02-09T02:36:07.701Z,20.77
2023-02-09T02:38:50.264Z,18.48
2023-02-09T02:41:52.687Z,20.65
2023-02-09T02:44:20.649Z,19.10
2023-02-09T02:47:03.040Z,18.75
2023-02-09T02:49:47.060Z,19.98
2023-02-09T02:52:31.879Z,16.30
2023-02-09T02:55:22.553Z,20.52
2023-02-09T02:57:55.632Z,14.55
2023-02-09T03:00:35.638Z,20.02
2023-02-09T03:03:22.128Z,21.42
2023-02-09T03:05:51.592Z,20.17
2023-02-09T03:08:19.728Z,20.50
2023-02-09T03:10:48.402Z,19.75
2023-02-09T03:14:04.582Z,20.38
2023-02-09T03:21:14.087Z,19.15
2023-02-09T03:24:04.557Z,20.63
2023-02-09T03:26:56.056Z,20.02
2023-02-09T03:29:27.597Z,22.55
2023-02-09T03:31:56.011Z,19.33
2023-02-09T03:34:23.822Z,22.75
2023-02-09T03:36:55.097Z,19.25
2023-02-09T03:39:23.070Z,20.85
2023-02-09T03:41:50.972Z,21.77
2023-02-09T03:44:27.937Z,21.70
2023-02-09T03:47:06.071Z,18.35
2023-02-09T03:49:39.255Z,20.92
2023-02-09T03:52:13.679Z,22.02
2023-02-09T03:54:42.362Z,20.25
2023-02-09T03:57:10.385Z,19.55
2023-02-09T03:59:39.139Z,20.88
2023-02-09T04:02:10.202Z,21.08
2023-02-09T04:04:38.222Z,20.92
2023-02-09T04:07:06.296Z,19.85
2023-02-09T04:09:34.390Z,22.27
2023-02-09T04:12:02.288Z,22.13
2023-02-09T04:14:30.134Z,21.65
2023-02-09T04:16:57.927Z,20.88
2023-02-09T04:19:25.800Z,24.38
2023-02-09T04:21:53.632Z,19.60
2023-02-09T04:24:28.654Z,20.25
2023-02-09T04:26:56.710Z,23.25
2023-02-09T04:29:24.559Z,22.52
2023-02-09T04:31:52.409Z,24.27
2023-02-09T04:34:21.158Z,22.80
2023-02-09T04:36:48.964Z,26.23
2023-02-09T04:39:16.909Z,23.08
2023-02-09T04:41:44.722Z,28.17
2023-02-09T04:44:12.511Z,27.60
2023-02-09T04:46:40.436Z,21.92
2023-02-09T04:49:08.544Z,24.15
2023-02-09T04:51:37.040Z,23.65
2023-02-09T04:54:04.832Z,24.10
2023-02-09T04:56:32.630Z,24.98
2023-02-09T04:59:19.426Z,23.70
2023-02-09T05:01:47.281Z,22.02
2023-02-09T05:04:15.658Z,22.90
2023-02-09T05:06:43.576Z,23.45
2023-02-09T05:09:11.336Z,21.38
2023-02-09T05:11:39.068Z,22.88
2023-02-09T05:14:06.722Z,25.25
2023-02-09T05:16:34.709Z,20.95
2023-02-09T05:19:02.489Z,25.00
2023-02-09T05:21:30.222Z,23.20
2023-02-09T05:23:57.938Z,29.50
2023-02-09T05:26:25.721Z,67.57
2023-02-09T05:28:53.574Z,59.80
2023-02-09T05:31:21.661Z,38.83
2023-02-09T05:33:49.485Z,34.20
2023-02-09T05:36:17.149Z,30.52
2023-02-09T05:38:44.906Z,28.25
2023-02-09T05:41:32.715Z,33.13
2023-02-09T05:44:00.448Z,22.55
2023-02-09T05:46:28.523Z,23.85
2023-02-09T05:48:56.422Z,24.20
2023-02-09T05:51:24.095Z,22.10
2023-02-09T05:53:54.262Z,30.25
2023-02-09T05:56:22.689Z,20.77
2023-02-09T05:58:50.414Z,32.22
2023-02-09T06:01:18.202Z,28.60
2023-02-09T06:03:46.029Z,27.10
2023-02-09T06:06:13.967Z,31.30
2023-02-09T06:08:41.813Z,26.83
2023-02-09T06:11:09.626Z,24.95
2023-02-09T06:13:37.501Z,24.67
2023-02-09T06:16:05.753Z,27.25
2023-02-09T06:18:33.639Z,26.77
2023-02-09T06:21:01.396Z,31.63
2023-02-09T06:23:29.273Z,31.33
2023-02-09T06:25:57.561Z,29.52
2023-02-09T06:28:25.431Z,32.13
2023-02-09T06:30:54.428Z,27.88
2023-02-09T06:33:22.241Z,33.05
2023-02-09T06:35:52.289Z,30.00
2023-02-09T06:38:20.663Z,29.77
2023-02-09T06:40:48.415Z,27.42
2023-02-09T06:43:17.047Z,28.90
2023-02-09T06:45:44.892Z,27.20
2023-02-09T06:48:12.597Z,24.50
2023-02-09T06:50:41.122Z,22.63
2023-02-09T06:53:08.864Z,24.90
2023-02-09T06:55:36.628Z,25.65
2023-02-09T06:58:04.980Z,28.38
2023-02-09T07:00:32.893Z,26.63
2023-02-09T07:03:00.758Z,23.58
2023-02-09T07:05:28.469Z,28.02
2023-02-09T07:07:56.851Z,27.27
2023-02-09T07:10:24.813Z,24.75
2023-02-09T07:12:53.651Z,28.23
2023-02-09T07:15:21.528Z,25.52
2023-02-09T07:17:49.243Z,28.88
2023-02-09T07:20:17.077Z,25.00
2023-02-09T07:22:45.259Z,27.08
2023-02-09T07:25:13.171Z,23.38
2023-02-09T07:27:44.689Z,27.17
2023-02-09T07:30:13.314Z,28.33
2023-02-09T07:32:42.164Z,25.05
2023-02-09T07:35:09.889Z,27.15
2023-02-09T07:37:37.655Z,29.27
2023-02-09T07:40:05.956Z,26.27
2023-02-09T07:42:34.734Z,28.17
2023-02-09T07:45:04.075Z,29.98
2023-02-09T07:47:32.095Z,30.35
2023-02-09T07:50:01.861Z,28.00
2023-02-09T07:52:29.515Z,33.97
2023-02-09T07:54:58.058Z,28.95
2023-02-09T07:57:27.521Z,29.83
2023-02-09T07:59:55.577Z,30.33
2023-02-09T08:02:36.197Z,26.73
2023-02-09T08:05:11.515Z,29.70
2023-02-09T08:07:39.263Z,30.55
2023-02-09T08:10:07.252Z,28.30
2023-02-09T08:12:53.986Z,30.17
2023-02-09T08:15:22.933Z,29.23
2023-02-09T08:20:27.628Z,32.72
2023-02-09T08:23:06.951Z,36.53
2023-02-09T08:25:36.010Z,33.33
2023-02-09T08:28:04.673Z,32.95
2023-02-09T08:30:34.328Z,31.55
2023-02-09T08:33:02.155Z,30.40
2023-02-09T08:35:30.860Z,28.85
2023-02-09T08:38:08.026Z,34.88
2023-02-09T08:40:41.343Z,33.38
2023-02-09T08:43:09.310Z,32.92
2023-02-09T08:45:40.269Z,31.30
2023-02-09T08:48:10.327Z,29.73
2023-02-09T08:50:58.007Z,30.08
2023-02-09T08:53:27.263Z,31.35
2023-02-09T08:55:55.545Z,28.40
2023-02-09T08:58:25.076Z,30.52
2023-02-09T09:01:00.091Z,31.80
2023-02-09T09:03:31.524Z,29.63
2023-02-09T09:06:08.110Z,30.17
2023-02-09T09:08:37.927Z,29.83
2023-02-09T09:11:07.320Z,30.42
2023-02-09T09:13:35.815Z,33.70
2023-02-09T09:16:05.281Z,31.92
2023-02-09T09:18:33.574Z,29.10
2023-02-09T09:21:01.846Z,28.88
2023-02-09T09:23:30.192Z,27.00
2023-02-09T09:26:02.371Z,29.10
2023-02-09T09:28:31.315Z,26.95
2023-02-09T09:31:05.739Z,29.02
2023-02-09T09:33:34.893Z,26.75
2023-02-09T09:36:04.872Z,28.48
2023-02-09T09:38:38.477Z,26.10
2023-02-09T09:41:23.382Z,27.13
2023-02-09T09:43:53.615Z,25.90
2023-02-09T09:46:35.626Z,27.83
2023-02-09T09:49:04.494Z,28.25
2023-02-09T09:51:49.514Z,28.13
2023-02-09T09:54:25.844Z,28.13
2023-02-09T09:56:55.732Z,34.05
2023-02-09T09:59:32.530Z,36.40
2023-02-09T10:02:39.726Z,29.27
2023-02-09T10:05:29.471Z,30.83
2023-02-09T10:08:23.485Z,32.80
2023-02-09T10:11:15.014Z,31.95
2023-02-09T10:13:52.086Z,32.25
2023-02-09T10:16:26.706Z,27.30
2023-02-09T10:18:59.389Z,32.00
2023-02-09T10:21:36.328Z,30.85
2023-02-09T10:24:26.531Z,29.55
2023-02-09T10:27:14.414Z,28.23
2023-02-09T10:29:42.233Z,31.55
2023-02-09T10:32:22.746Z,27.90
2023-02-09T10:34:55.944Z,30.98
2023-02-09T10:37:48.298Z,30.45
2023-02-09T10:40:23.973Z,31.27
2023-02-09T10:43:07.529Z,28.88
2023-02-09T10:45:45.287Z,30.10
2023-02-09T10:48:13.286Z,27.52
2023-02-09T10:51:28.979Z,29.05
2023-02-09T10:54:07.323Z,27.17
2023-02-09T10:56:46.812Z,29.15
2023-02-09T10:59:20.918Z,28.30
2023-02-09T11:02:00.107Z,26.85
2023-02-09T11:04:40.078Z,32.38
2023-02-09T11:07:17.917Z,28.25
2023-02-09T11:09:50.510Z,27.92
2023-02-09T11:12:22.537Z,30.02
2023-02-09T11:14:50.422Z,28.42
2023-02-09T11:17:26.375Z,31.50
2023-02-09T11:20:23.251Z,29.08
2023-02-09T11:23:04.911Z,29.50
2023-02-09T11:25:50.488Z,28.30
2023-02-09T11:28:48.451Z,28.42
2023-02-09T11:31:49.788Z,27.50
2023-02-09T11:34:48.938Z,28.15
2023-02-09T11:37:31.552Z,29.25
2023-02-09T11:40:32.751Z,27.52
2023-02-09T11:43:19.009Z,21.67
2023-02-09T11:45:50.804Z,28.92
2023-02-09T11:48:26.099Z,28.83
2023-02-09T11:51:08.053Z,28.88
2023-02-09T11:53:50.404Z,31.80
2023-02-09T11:56:22.475Z,30.17
2023-02-09T11:59:22.662Z,28.42
2023-02-09T12:01:55.169Z,27.92
2023-02-09T12:04:32.274Z,32.35
2023-02-09T12:07:15.992Z,28.60
2023-02-09T12:10:06.593Z,27.15
2023-02-09T12:13:01.481Z,26.52
2023-02-09T12:16:15.750Z,25.45
2023-02-09T12:18:45.458Z,27.70
2023-02-09T12:21:13.452Z,26.90
2023-02-09T12:23:46.625Z,23.77
2023-02-09T12:26:17.480Z,27.17
2023-02-09T12:29:03.432Z,26.33
2023-02-09T12:32:04.312Z,28.65
2023-02-09T12:34:53.093Z,23.52
2023-02-09T12:37:29.282Z,25.25
2023-02-09T12:40:07.205Z,27.38
2023-02-09T12:42:58.078Z,23.35
2023-02-09T12:45:43.840Z,23.05
2023-02-09T12:48:19.125Z,21.17
2023-02-09T12:50:54.827Z,22.13
2023-02-09T12:53:22.880Z,22.67
2023-02-09T12:56:03.707Z,22.80
2023-02-09T12:58:37.221Z,14.65
2023-02-09T13:01:06.518Z,22.85
2023-02-09T13:03:58.063Z,24.35
2023-02-09T13:06:53.943Z,24.08
2023-02-09T13:09:38.849Z,23.27
2023-02-09T13:12:19.979Z,24.83
2023-02-09T13:14:51.132Z,23.10
2023-02-09T13:18:02.144Z,22.88
2023-02-09T13:20:59.741Z,24.95
2023-02-09T13:23:32.427Z,24.27
2023-02-09T13:26:27.586Z,26.13
2023-02-09T13:29:20.394Z,31.55
2023-02-09T13:32:13.104Z,24.38
2023-02-09T13:37:58.901Z,24.05
2023-02-09T13:40:31.617Z,25.83
2023-02-09T13:43:24.187Z,25.17
2023-02-09T13:45:55.021Z,22.67
2023-02-09T13:48:45.248Z,18.80
2023-02-09T13:51:19.232Z,23.00
2023-02-09T13:54:00.013Z,24.77
2023-02-09T13:56:29.704Z,24.88
2023-02-09T13:58:58.541Z,24.15
2023-02-09T14:01:36.448Z,23.63
2023-02-09T14:04:25.494Z,22.50
2023-02-09T14:07:03.027Z,22.13
2023-02-09T14:09:47.469Z,22.63
2023-02-09T14:12:46.847Z,23.73
2023-02-09T14:15:33.623Z,21.92
2023-02-09T14:18:01.544Z,22.98
2023-02-09T14:20:29.241Z,24.13
2023-02-09T14:23:00.086Z,22.95
2023-02-09T14:25:31.568Z,24.27
2023-02-09T14:27:59.887Z,22.42
2023-02-09T14:30:33.559Z,20.45
2023-02-09T14:33:06.124Z,27.30
2023-02-09T14:35:41.309Z,42.50
2023-02-09T14:38:41.402Z,28.65
2023-02-09T14:41:28.398Z,22.45
2023-02-09T14:44:20.335Z,22.73
2023-02-09T14:46:52.442Z,22.33
2023-02-09T14:49:21.964Z,21.13
2023-02-09T14:52:14.996Z,21.20
2023-02-09T14:55:05.550Z,19.65
2023-02-09T14:57:39.084Z,19.40
2023-02-09T15:00:25.605Z,19.55
2023-02-09T15:02:54.214Z,18.50
2023-02-09T15:05:24.155Z,19.10
2023-02-09T15:08:03.177Z,21.02
2023-02-09T15:10:38.819Z,19.93
2023-02-09T15:13:06.754Z,18.40
2023-02-09T15:15:37.628Z,21.35
2023-02-09T15:18:06.552Z,13.70
2023-02-09T15:20:34.561Z,19.63
2023-02-09T15:23:02.322Z,37.85
2023-02-09T15:25:30.594Z,56.78
2023-02-09T15:28:00.600Z,57.50
2023-02-09T15:30:34.059Z,34.05
2023-02-09T15:33:02.491Z,31.15
2023-02-09T15:35:30.339Z,27.38
2023-02-09T15:38:01.136Z,23.42
2023-02-09T15:40:59.101Z,25.80
2023-02-09T15:43:46.167Z,22.88
2023-02-09T15:46:33.477Z,20.67
2023-02-09T15:49:01.814Z,21.55
2023-02-09T15:51:34.064Z,22.33
2023-02-09T15:54:15.974Z,23.90
2023-02-09T15:56:43.847Z,56.28
2023-02-09T15:59:21.155Z,52.75
2023-02-09T16:01:50.381Z,32.78
2023-02-09T16:04:18.644Z,29.48
2023-02-09T16:06:50.906Z,27.85
2023-02-09T16:09:27.666Z,27.55
2023-02-09T16:11:55.809Z,29.10
2023-02-09T16:14:27.662Z,25.48
2023-02-09T16:16:55.637Z,25.08
2023-02-09T16:19:23.514Z,25.88
2023-02-09T16:21:56.391Z,33.22
2023-02-09T16:24:44.172Z,35.83
2023-02-09T16:27:17.419Z,33.17
2023-02-09T16:29:45.288Z,46.85
2023-02-09T16:32:20.018Z,48.45
2023-02-09T16:34:47.796Z,46.20
2023-02-09T16:37:32.744Z,44.45
2023-02-09T16:40:02.163Z,43.28
2023-02-09T16:42:29.894Z,42.42
2023-02-09T16:44:57.845Z,36.50
2023-02-09T16:47:27.942Z,40.42
2023-02-09T16:50:04.025Z,36.92
2023-02-09T16:52:32.944Z,35.90
2023-02-09T16:55:22.392Z,33.05
2023-02-09T16:57:54.731Z,39.65
2023-02-09T17:00:31.193Z,39.30
2023-02-09T17:03:15.006Z,36.10
2023-02-09T17:05:55.746Z,33.05
2023-02-09T17:08:27.385Z,34.00
2023-02-09T17:10:56.509Z,31.52
2023-02-09T17:13:25.600Z,32.95
2023-02-09T17:16:00.938Z,39.35
2023-02-09T17:18:43.113Z,46.15
2023-02-09T17:21:31.496Z,44.10
2023-02-09T17:23:59.290Z,49.75
2023-02-09T17:26:27.693Z,45.47
2023-02-09T17:28:55.773Z,43.35
2023-02-09T17:31:28.630Z,37.00
2023-02-09T17:34:00.782Z,32.75
2023-02-09T17:36:30.044Z,27.83
2023-02-09T17:38:59.660Z,27.63
2023-02-09T17:41:43.052Z,28.90
2023-02-09T17:44:26.531Z,28.77
2023-02-09T17:46:56.976Z,28.63
2023-02-09T17:49:24.975Z,33.67
2023-02-09T17:51:53.038Z,28.88
2023-02-09T17:54:21.541Z,31.80
2023-02-09T17:56:49.478Z,30.27
2023-02-09T17:59:19.919Z,33.20
2023-02-09T18:01:55.082Z,37.03
2023-02-09T18:04:28.707Z,35.72
2023-02-09T18:06:58.219Z,34.67
2023-02-09T18:09:26.247Z,32.95
2023-02-09T18:11:59.723Z,32.28
2023-02-09T18:14:30.638Z,28.42
2023-02-09T18:16:59.008Z,27.88
2023-02-09T18:19:27.147Z,29.85
2023-02-09T18:21:58.995Z,23.42
2023-02-09T18:24:31.261Z,25.90
2023-02-09T18:26:59.338Z,26.63
2023-02-09T18:29:29.775Z,27.90
2023-02-09T18:32:00.322Z,30.83
2023-02-09T18:34:29.107Z,30.38
2023-02-09T18:36:57.301Z,33.97
2023-02-09T18:39:25.026Z,34.78
2023-02-09T18:41:54.490Z,33.08
2023-02-09T18:44:28.715Z,31.20
2023-02-09T18:47:00.403Z,32.88
2023-02-09T18:49:29.088Z,30.50
2023-02-09T18:51:58.775Z,30.23
2023-02-09T18:54:28.832Z,28.23
2023-02-09T18:57:05.950Z,28.45
2023-02-09T18:59:34.183Z,30.25
2023-02-09T19:02:03.560Z,30.38
2023-02-09T19:04:31.293Z,32.90
2023-02-09T19:06:59.181Z,34.30
2023-02-09T19:09:26.949Z,30.50
2023-02-09T19:11:54.704Z,35.67
2023-02-09T19:14:37.706Z,30.33
2023-02-09T19:17:07.904Z,29.15
2023-02-09T19:19:36.135Z,23.88
2023-02-09T19:22:03.968Z,28.77
2023-02-09T19:24:31.851Z,28.10
2023-02-09T19:26:59.786Z,27.52
2023-02-09T19:29:29.001Z,32.63
2023-02-09T19:31:57.010Z,31.70
2023-02-09T19:34:24.949Z,28.90
2023-02-09T19:36:52.688Z,29.33
2023-02-09T19:39:20.553Z,28.88
2023-02-09T19:41:49.197Z,29.30
2023-02-09T19:44:17.163Z,26.85
2023-02-09T19:46:45.592Z,29.45
2023-02-09T19:49:13.435Z,24.92
2023-02-09T19:51:41.139Z,26.67
2023-02-09T19:54:08.909Z,26.05
2023-02-09T19:56:37.290Z,30.02
2023-02-09T19:59:05.135Z,32.10
2023-02-09T20:01:33.374Z,36.40
2023-02-09T20:04:01.431Z,40.03
2023-02-09T20:06:30.978Z,43.78
2023-02-09T20:08:59.563Z,46.10
2023-02-09T20:11:28.405Z,43.70
2023-02-09T20:13:56.135Z,34.20
2023-02-09T20:16:27.298Z,40.72
2023-02-09T20:18:55.618Z,36.63
2023-02-09T20:21:24.463Z,35.17
2023-02-09T20:23:57.197Z,35.10
2023-02-09T20:26:30.292Z,32.13
2023-02-09T20:28:59.042Z,33.20
2023-02-09T20:31:32.558Z,29.23
2023-02-09T20:34:04.935Z,31.35
2023-02-09T20:36:39.399Z,31.90
2023-02-09T20:39:10.857Z,30.90
2023-02-09T20:44:25.423Z,27.48
2023-02-09T20:46:56.285Z,30.00
2023-02-09T20:49:31.063Z,23.45
2023-02-09T20:51:59.709Z,34.85
2023-02-09T20:54:27.566Z,28.38
2023-02-09T20:56:55.320Z,28.33
2023-02-09T20:59:24.628Z,30.73
2023-02-09T21:01:52.676Z,31.85
2023-02-09T21:04:20.391Z,29.92
2023-02-09T21:06:48.372Z,30.85
2023-02-09T21:09:16.588Z,33.03
2023-02-09T21:11:44.675Z,29.35
2023-02-09T21:14:21.947Z,31.13
2023-02-09T21:16:56.310Z,28.23
2023-02-09T21:19:25.088Z,31.30
2023-02-09T21:21:53.145Z,34.15
2023-02-09T21:24:21.329Z,31.13
2023-02-09T21:26:49.460Z,30.83
2023-02-09T21:29:17.270Z,34.05
2023-02-09T21:31:45.675Z,35.72
2023-02-09T21:34:17.202Z,33.05
2023-02-09T21:36:45.176Z,34.15
2023-02-09T21:39:13.436Z,33.42
2023-02-09T21:42:00.135Z,33.50
2023-02-09T21:44:28.547Z,31.05
2023-02-09T21:46:56.652Z,31.25
2023-02-09T21:49:24.425Z,31.35
2023-02-09T21:51:52.179Z,29.60
2023-02-09T21:54:20.144Z,33.08
2023-02-09T21:56:48.080Z,33.58
2023-02-09T21:59:17.069Z,36.45
2023-02-09T22:01:44.855Z,36.22
2023-02-09T22:04:12.649Z,40.05
2023-02-09T22:06:41.665Z,39.97
2023-02-09T22:09:09.524Z,43.53
2023-02-09T22:11:37.311Z,45.88
2023-02-09T22:14:06.588Z,40.13
2023-02-09T22:16:34.503Z,41.58
2023-02-09T22:19:04.569Z,41.72
2023-02-09T22:21:32.338Z,37.42
2023-02-09T22:24:00.017Z,35.13
2023-02-09T22:26:27.865Z,32.40
2023-02-09T22:28:55.555Z,34.03
2023-02-09T22:31:23.483Z,34.45
2023-02-09T22:33:55.067Z,35.78
2023-02-09T22:36:23.569Z,34.22
2023-02-09T22:38:51.942Z,32.90
2023-02-09T22:41:22.768Z,34.83
2023-02-09T22:43:55.779Z,31.42
2023-02-09T22:46:28.524Z,31.92
2023-02-09T22:49:00.391Z,35.33
2023-02-09T22:51:30.619Z,35.83
2023-02-09T22:54:00.117Z,35.72
2023-02-09T22:56:29.877Z,34.30
2023-02-09T22:59:00.115Z,32.45
2023-02-09T23:01:28.990Z,31.95
2023-02-09T23:03:57.754Z,29.23
2023-02-09T23:06:28.458Z,34.25
2023-02-09T23:09:00.592Z,25.67
2023-02-09T23:11:30.986Z,34.08
2023-02-09T23:14:09.249Z,34.42
2023-02-09T23:16:41.696Z,33.95
2023-02-09T23:19:19.533Z,32.72
2023-02-09T23:21:50.254Z,31.65
2023-02-09T23:24:21.717Z,32.97
2023-02-09T23:29:18.128Z,37.05
2023-02-09T23:31:47.087Z,32.20
2023-02-09T23:34:18.166Z,34.45
2023-02-09T23:36:46.405Z,32.00
2023-02-09T23:39:18.154Z,31.92
2023-02-09T23:41:46.771Z,33.35
2023-02-09T23:44:15.712Z,32.67
2023-02-09T23:46:44.795Z,34.50
2023-02-09T23:49:12.781Z,32.35
2023-02-09T23:51:40.606Z,31.30
2023-02-09T23:54:08.456Z,32.53
2023-02-09T23:56:37.238Z,33.90
2023-02-09T23:59:14.015Z,32.88
